sensor_id;sensor_type;location;lat;lon;timestamp;P1;durP1;ratioP1;P2;durP2;ratioP2
19364;SDS011;9818;48.382;10.850;2023-07-13T00:01:12;5.97;;;5.37;;
19364;SDS011;9818;48.382;10.850;2023-07-13T00:03:41;6.80;;;5.90;;
19364;SDS011;9818;48.382;10.850;2023-07-13T00:06:09;8.73;;;5.83;;
19364;SDS011;9818;48.382;10.850;2023-07-13T00:08:38;7.83;;;6.70;;
19364;SDS011;9818;48.382;10.850;2023-07-13T00:11:09;7.47;;;6.50;;
19364;SDS011;9818;48.382;10.850;2023-07-13T00:13:38;8.37;;;6.23;;
19364;SDS011;9818;48.382;10.850;2023-07-13T00:16:07;7.10;;;6.40;;
19364;SDS011;9818;48.382;10.850;2023-07-13T00:18:36;7.40;;;6.37;;
19364;SDS011;9818;48.382;10.850;2023-07-13T00:21:05;7.73;;;6.37;;
19364;SDS011;9818;48.382;10.850;2023-07-13T00:23:35;8.13;;;6.07;;
19364;SDS011;9818;48.382;10.850;2023-07-13T00:26:05;6.90;;;6.20;;
19364;SDS011;9818;48.382;10.850;2023-07-13T00:28:39;9.30;;;5.93;;
19364;SDS011;9818;48.382;10.850;2023-07-13T00:31:08;7.53;;;6.73;;
19364;SDS011;9818;48.382;10.850;2023-07-13T00:33:39;9.00;;;6.33;;
19364;SDS011;9818;48.382;10.850;2023-07-13T00:36:08;8.53;;;7.37;;
19364;SDS011;9818;48.382;10.850;2023-07-13T00:38:38;8.97;;;7.30;;
19364;SDS011;9818;48.382;10.850;2023-07-13T00:41:06;10.13;;;6.60;;
19364;SDS011;9818;48.382;10.850;2023-07-13T00:43:35;10.17;;;6.53;;
19364;SDS011;9818;48.382;10.850;2023-07-13T00:46:10;8.97;;;7.00;;
19364;SDS011;9818;48.382;10.850;2023-07-13T00:48:41;14.30;;;8.10;;
19364;SDS011;9818;48.382;10.850;2023-07-13T00:51:12;9.60;;;7.53;;
19364;SDS011;9818;48.382;10.850;2023-07-13T00:53:42;9.90;;;7.87;;
19364;SDS011;9818;48.382;10.850;2023-07-13T00:56:11;11.13;;;7.80;;
19364;SDS011;9818;48.382;10.850;2023-07-13T00:58:43;10.00;;;7.90;;
19364;SDS011;9818;48.382;10.850;2023-07-13T01:01:12;10.20;;;7.37;;
19364;SDS011;9818;48.382;10.850;2023-07-13T01:03:40;13.63;;;8.10;;
19364;SDS011;9818;48.382;10.850;2023-07-13T01:06:09;10.10;;;7.87;;
19364;SDS011;9818;48.382;10.850;2023-07-13T01:08:39;11.07;;;8.03;;
19364;SDS011;9818;48.382;10.850;2023-07-13T01:11:07;10.77;;;8.13;;
19364;SDS011;9818;48.382;10.850;2023-07-13T01:13:36;9.80;;;8.40;;
19364;SDS011;9818;48.382;10.850;2023-07-13T01:16:11;10.23;;;8.80;;
19364;SDS011;9818;48.382;10.850;2023-07-13T01:18:47;11.37;;;8.90;;
19364;SDS011;9818;48.382;10.850;2023-07-13T01:21:18;10.47;;;8.57;;
19364;SDS011;9818;48.382;10.850;2023-07-13T01:23:47;15.47;;;9.33;;
19364;SDS011;9818;48.382;10.850;2023-07-13T01:26:16;15.10;;;9.37;;
19364;SDS011;9818;48.382;10.850;2023-07-13T01:28:44;15.30;;;10.27;;
19364;SDS011;9818;48.382;10.850;2023-07-13T01:31:13;14.03;;;10.10;;
19364;SDS011;9818;48.382;10.850;2023-07-13T01:33:42;13.83;;;9.43;;
19364;SDS011;9818;48.382;10.850;2023-07-13T01:36:11;11.23;;;8.87;;
19364;SDS011;9818;48.382;10.850;2023-07-13T01:38:42;12.37;;;9.90;;
19364;SDS011;9818;48.382;10.850;2023-07-13T01:41:11;12.60;;;9.83;;
19364;SDS011;9818;48.382;10.850;2023-07-13T01:43:39;12.43;;;10.07;;
19364;SDS011;9818;48.382;10.850;2023-07-13T01:46:08;15.07;;;10.47;;
19364;SDS011;9818;48.382;10.850;2023-07-13T01:48:37;12.03;;;9.83;;
19364;SDS011;9818;48.382;10.850;2023-07-13T01:51:06;13.87;;;10.77;;
19364;SDS011;9818;48.382;10.850;2023-07-13T01:53:34;15.43;;;10.67;;
19364;SDS011;9818;48.382;10.850;2023-07-13T01:56:05;16.47;;;10.30;;
19364;SDS011;9818;48.382;10.850;2023-07-13T01:58:34;15.90;;;10.00;;
19364;SDS011;9818;48.382;10.850;2023-07-13T02:01:03;12.97;;;10.13;;
19364;SDS011;9818;48.382;10.850;2023-07-13T02:03:31;19.17;;;11.43;;
19364;SDS011;9818;48.382;10.850;2023-07-13T02:06:00;14.80;;;10.43;;
19364;SDS011;9818;48.382;10.850;2023-07-13T02:08:29;14.77;;;10.07;;
19364;SDS011;9818;48.382;10.850;2023-07-13T02:10:58;14.57;;;10.33;;
19364;SDS011;9818;48.382;10.850;2023-07-13T02:13:29;11.27;;;9.23;;
19364;SDS011;9818;48.382;10.850;2023-07-13T02:15:58;15.47;;;9.63;;
19364;SDS011;9818;48.382;10.850;2023-07-13T02:18:27;12.10;;;9.30;;
19364;SDS011;9818;48.382;10.850;2023-07-13T02:20:55;12.10;;;9.43;;
19364;SDS011;9818;48.382;10.850;2023-07-13T02:23:24;18.87;;;10.63;;
19364;SDS011;9818;48.382;10.850;2023-07-13T02:25:54;11.13;;;9.97;;
19364;SDS011;9818;48.382;10.850;2023-07-13T02:28:23;14.93;;;10.40;;
19364;SDS011;9818;48.382;10.850;2023-07-13T02:30:55;12.50;;;10.07;;
19364;SDS011;9818;48.382;10.850;2023-07-13T02:33:32;10.37;;;8.37;;
19364;SDS011;9818;48.382;10.850;2023-07-13T02:36:00;13.13;;;9.63;;
19364;SDS011;9818;48.382;10.850;2023-07-13T02:38:30;14.10;;;10.63;;
19364;SDS011;9818;48.382;10.850;2023-07-13T02:41:01;11.80;;;9.10;;
19364;SDS011;9818;48.382;10.850;2023-07-13T02:43:29;15.00;;;9.90;;
19364;SDS011;9818;48.382;10.850;2023-07-13T02:46:01;12.70;;;9.10;;
19364;SDS011;9818;48.382;10.850;2023-07-13T02:48:32;13.50;;;8.83;;
19364;SDS011;9818;48.382;10.850;2023-07-13T02:51:01;13.07;;;8.97;;
19364;SDS011;9818;48.382;10.850;2023-07-13T02:53:29;12.87;;;8.57;;
19364;SDS011;9818;48.382;10.850;2023-07-13T02:55:58;10.33;;;8.07;;
19364;SDS011;9818;48.382;10.850;2023-07-13T02:58:27;13.77;;;8.20;;
19364;SDS011;9818;48.382;10.850;2023-07-13T03:00:57;16.30;;;8.90;;
19364;SDS011;9818;48.382;10.850;2023-07-13T03:03:29;11.10;;;7.73;;
19364;SDS011;9818;48.382;10.850;2023-07-13T03:05:58;13.33;;;8.40;;
19364;SDS011;9818;48.382;10.850;2023-07-13T03:08:28;13.93;;;7.60;;
19364;SDS011;9818;48.382;10.850;2023-07-13T03:11:00;11.10;;;8.13;;
19364;SDS011;9818;48.382;10.850;2023-07-13T03:13:30;11.30;;;6.90;;
19364;SDS011;9818;48.382;10.850;2023-07-13T03:15:59;13.73;;;7.43;;
19364;SDS011;9818;48.382;10.850;2023-07-13T03:18:31;10.33;;;6.60;;
19364;SDS011;9818;48.382;10.850;2023-07-13T03:20:59;8.93;;;6.60;;
19364;SDS011;9818;48.382;10.850;2023-07-13T03:23:28;15.30;;;7.00;;
19364;SDS011;9818;48.382;10.850;2023-07-13T03:26:04;126.43;;;15.43;;
19364;SDS011;9818;48.382;10.850;2023-07-13T03:28:34;11.33;;;6.87;;
19364;SDS011;9818;48.382;10.850;2023-07-13T03:31:04;463.00;;;40.93;;
19364;SDS011;9818;48.382;10.850;2023-07-13T03:33:37;7.17;;;5.80;;
19364;SDS011;9818;48.382;10.850;2023-07-13T03:36:06;8.00;;;5.80;;
19364;SDS011;9818;48.382;10.850;2023-07-13T03:38:36;280.80;;;29.77;;
19364;SDS011;9818;48.382;10.850;2023-07-13T03:41:05;8.57;;;5.70;;
19364;SDS011;9818;48.382;10.850;2023-07-13T03:43:33;12.20;;;6.33;;
19364;SDS011;9818;48.382;10.850;2023-07-13T03:46:02;9.40;;;5.80;;
19364;SDS011;9818;48.382;10.850;2023-07-13T03:48:31;9.73;;;5.87;;
19364;SDS011;9818;48.382;10.850;2023-07-13T03:51:02;10.53;;;6.40;;
19364;SDS011;9818;48.382;10.850;2023-07-13T03:53:31;9.70;;;6.23;;
19364;SDS011;9818;48.382;10.850;2023-07-13T03:55:59;8.53;;;6.30;;
19364;SDS011;9818;48.382;10.850;2023-07-13T03:58:30;11.10;;;5.80;;
19364;SDS011;9818;48.382;10.850;2023-07-13T04:01:00;8.33;;;6.00;;
19364;SDS011;9818;48.382;10.850;2023-07-13T04:03:30;8.80;;;6.07;;
19364;SDS011;9818;48.382;10.850;2023-07-13T04:06:04;10.90;;;6.37;;
19364;SDS011;9818;48.382;10.850;2023-07-13T04:08:35;7.90;;;5.97;;
19364;SDS011;9818;48.382;10.850;2023-07-13T04:11:04;10.53;;;6.07;;
19364;SDS011;9818;48.382;10.850;2023-07-13T04:13:35;7.40;;;5.57;;
19364;SDS011;9818;48.382;10.850;2023-07-13T04:16:03;7.53;;;5.37;;
19364;SDS011;9818;48.382;10.850;2023-07-13T04:18:32;6.70;;;5.10;;
19364;SDS011;9818;48.382;10.850;2023-07-13T04:21:03;8.37;;;5.47;;
19364;SDS011;9818;48.382;10.850;2023-07-13T04:23:32;11.80;;;5.87;;
19364;SDS011;9818;48.382;10.850;2023-07-13T04:26:01;6.83;;;4.50;;
19364;SDS011;9818;48.382;10.850;2023-07-13T04:28:29;8.90;;;4.80;;
19364;SDS011;9818;48.382;10.850;2023-07-13T04:30:58;6.57;;;4.60;;
19364;SDS011;9818;48.382;10.850;2023-07-13T04:33:27;7.83;;;4.37;;
19364;SDS011;9818;48.382;10.850;2023-07-13T04:35:56;6.80;;;4.17;;
19364;SDS011;9818;48.382;10.850;2023-07-13T04:38:29;10.33;;;4.40;;
19364;SDS011;9818;48.382;10.850;2023-07-13T04:41:00;8.53;;;4.13;;
19364;SDS011;9818;48.382;10.850;2023-07-13T04:43:31;7.37;;;3.87;;
19364;SDS011;9818;48.382;10.850;2023-07-13T04:46:03;9.03;;;4.00;;
19364;SDS011;9818;48.382;10.850;2023-07-13T04:48:32;6.13;;;4.23;;
19364;SDS011;9818;48.382;10.850;2023-07-13T04:51:01;8.43;;;4.37;;
19364;SDS011;9818;48.382;10.850;2023-07-13T04:53:34;9.73;;;4.33;;
19364;SDS011;9818;48.382;10.850;2023-07-13T04:56:03;11.03;;;3.90;;
19364;SDS011;9818;48.382;10.850;2023-07-13T04:58:32;5.73;;;3.90;;
19364;SDS011;9818;48.382;10.850;2023-07-13T05:01:02;8.43;;;4.63;;
19364;SDS011;9818;48.382;10.850;2023-07-13T05:03:32;6.70;;;4.03;;
19364;SDS011;9818;48.382;10.850;2023-07-13T05:06:02;8.93;;;4.37;;
19364;SDS011;9818;48.382;10.850;2023-07-13T05:08:35;11.57;;;4.30;;
19364;SDS011;9818;48.382;10.850;2023-07-13T05:11:04;11.40;;;4.33;;
19364;SDS011;9818;48.382;10.850;2023-07-13T05:13:33;9.13;;;4.73;;
19364;SDS011;9818;48.382;10.850;2023-07-13T05:16:02;6.87;;;4.17;;
19364;SDS011;9818;48.382;10.850;2023-07-13T05:18:34;5.40;;;3.67;;
19364;SDS011;9818;48.382;10.850;2023-07-13T05:21:04;8.23;;;4.57;;
19364;SDS011;9818;48.382;10.850;2023-07-13T05:23:37;5.97;;;4.80;;
19364;SDS011;9818;48.382;10.850;2023-07-13T05:26:06;7.10;;;4.30;;
19364;SDS011;9818;48.382;10.850;2023-07-13T05:28:35;8.23;;;4.03;;
19364;SDS011;9818;48.382;10.850;2023-07-13T05:31:04;6.27;;;4.43;;
19364;SDS011;9818;48.382;10.850;2023-07-13T05:33:35;6.37;;;3.90;;
19364;SDS011;9818;48.382;10.850;2023-07-13T05:36:04;8.33;;;3.60;;
19364;SDS011;9818;48.382;10.850;2023-07-13T05:38:33;6.03;;;3.50;;
19364;SDS011;9818;48.382;10.850;2023-07-13T05:41:04;6.60;;;3.93;;
19364;SDS011;9818;48.382;10.850;2023-07-13T05:43:32;8.30;;;3.60;;
19364;SDS011;9818;48.382;10.850;2023-07-13T05:46:02;7.00;;;3.43;;
19364;SDS011;9818;48.382;10.850;2023-07-13T05:48:31;6.90;;;4.00;;
19364;SDS011;9818;48.382;10.850;2023-07-13T05:51:00;5.50;;;3.10;;
19364;SDS011;9818;48.382;10.850;2023-07-13T05:53:29;5.40;;;3.47;;
19364;SDS011;9818;48.382;10.850;2023-07-13T05:55:57;5.00;;;3.23;;
19364;SDS011;9818;48.382;10.850;2023-07-13T05:58:29;6.13;;;3.60;;
19364;SDS011;9818;48.382;10.850;2023-07-13T06:00:59;4.20;;;3.00;;
19364;SDS011;9818;48.382;10.850;2023-07-13T06:03:28;6.23;;;3.40;;
19364;SDS011;9818;48.382;10.850;2023-07-13T06:05:57;5.97;;;3.40;;
19364;SDS011;9818;48.382;10.850;2023-07-13T06:08:28;4.13;;;3.03;;
19364;SDS011;9818;48.382;10.850;2023-07-13T06:11:01;5.17;;;3.17;;
19364;SDS011;9818;48.382;10.850;2023-07-13T06:13:33;10.50;;;3.33;;
19364;SDS011;9818;48.382;10.850;2023-07-13T06:16:02;5.07;;;2.90;;
19364;SDS011;9818;48.382;10.850;2023-07-13T06:18:32;4.17;;;3.20;;
19364;SDS011;9818;48.382;10.850;2023-07-13T06:21:01;7.80;;;3.13;;
19364;SDS011;9818;48.382;10.850;2023-07-13T06:23:34;3.83;;;2.50;;
19364;SDS011;9818;48.382;10.850;2023-07-13T06:26:03;5.07;;;2.67;;
19364;SDS011;9818;48.382;10.850;2023-07-13T06:28:35;5.40;;;3.17;;
19364;SDS011;9818;48.382;10.850;2023-07-13T06:31:05;5.57;;;3.43;;
19364;SDS011;9818;48.382;10.850;2023-07-13T06:33:34;3.87;;;2.90;;
19364;SDS011;9818;48.382;10.850;2023-07-13T06:36:04;7.03;;;3.00;;
19364;SDS011;9818;48.382;10.850;2023-07-13T06:38:34;3.97;;;3.20;;
19364;SDS011;9818;48.382;10.850;2023-07-13T06:41:04;7.77;;;2.97;;
19364;SDS011;9818;48.382;10.850;2023-07-13T06:43:36;4.70;;;3.07;;
19364;SDS011;9818;48.382;10.850;2023-07-13T06:46:04;3.70;;;2.90;;
19364;SDS011;9818;48.382;10.850;2023-07-13T06:48:34;5.83;;;2.90;;
19364;SDS011;9818;48.382;10.850;2023-07-13T06:51:02;8.43;;;3.13;;
19364;SDS011;9818;48.382;10.850;2023-07-13T06:53:31;4.17;;;2.87;;
19364;SDS011;9818;48.382;10.850;2023-07-13T06:56:00;3.93;;;3.30;;
19364;SDS011;9818;48.382;10.850;2023-07-13T06:58:28;10.70;;;3.23;;
19364;SDS011;9818;48.382;10.850;2023-07-13T07:01:00;5.00;;;3.00;;
19364;SDS011;9818;48.382;10.850;2023-07-13T07:03:28;5.10;;;3.10;;
19364;SDS011;9818;48.382;10.850;2023-07-13T07:05:59;8.40;;;3.10;;
19364;SDS011;9818;48.382;10.850;2023-07-13T07:08:28;5.37;;;2.70;;
19364;SDS011;9818;48.382;10.850;2023-07-13T07:10:57;7.67;;;2.77;;
19364;SDS011;9818;48.382;10.850;2023-07-13T07:13:26;3.60;;;2.50;;
19364;SDS011;9818;48.382;10.850;2023-07-13T07:15:55;4.13;;;2.77;;
19364;SDS011;9818;48.382;10.850;2023-07-13T07:18:27;4.83;;;2.70;;
19364;SDS011;9818;48.382;10.850;2023-07-13T07:20:56;4.77;;;2.70;;
19364;SDS011;9818;48.382;10.850;2023-07-13T07:23:25;4.82;;;2.45;;
19364;SDS011;9818;48.382;10.850;2023-07-13T07:25:53;4.80;;;2.80;;
19364;SDS011;9818;48.382;10.850;2023-07-13T07:28:22;6.30;;;2.80;;
19364;SDS011;9818;48.382;10.850;2023-07-13T07:30:53;3.93;;;2.57;;
19364;SDS011;9818;48.382;10.850;2023-07-13T07:33:23;3.13;;;2.33;;
19364;SDS011;9818;48.382;10.850;2023-07-13T07:35:55;3.90;;;2.70;;
19364;SDS011;9818;48.382;10.850;2023-07-13T07:38:23;5.27;;;2.80;;
19364;SDS011;9818;48.382;10.850;2023-07-13T07:40:53;4.37;;;2.33;;
19364;SDS011;9818;48.382;10.850;2023-07-13T07:43:22;8.40;;;2.53;;
19364;SDS011;9818;48.382;10.850;2023-07-13T07:45:50;5.40;;;2.40;;
19364;SDS011;9818;48.382;10.850;2023-07-13T07:48:19;5.73;;;2.83;;
19364;SDS011;9818;48.382;10.850;2023-07-13T07:50:47;6.87;;;2.40;;
19364;SDS011;9818;48.382;10.850;2023-07-13T07:53:19;5.93;;;2.43;;
19364;SDS011;9818;48.382;10.850;2023-07-13T07:55:47;4.70;;;2.35;;
19364;SDS011;9818;48.382;10.850;2023-07-13T07:58:16;7.17;;;2.87;;
19364;SDS011;9818;48.382;10.850;2023-07-13T08:00:45;4.73;;;2.30;;
19364;SDS011;9818;48.382;10.850;2023-07-13T08:03:13;3.57;;;2.23;;
19364;SDS011;9818;48.382;10.850;2023-07-13T08:05:42;3.77;;;2.10;;
19364;SDS011;9818;48.382;10.850;2023-07-13T08:08:11;3.60;;;2.27;;
19364;SDS011;9818;48.382;10.850;2023-07-13T08:10:42;4.43;;;2.30;;
19364;SDS011;9818;48.382;10.850;2023-07-13T08:13:10;4.43;;;2.20;;
19364;SDS011;9818;48.382;10.850;2023-07-13T08:15:39;4.77;;;2.43;;
19364;SDS011;9818;48.382;10.850;2023-07-13T08:18:08;5.53;;;2.73;;
19364;SDS011;9818;48.382;10.850;2023-07-13T08:20:37;3.60;;;2.10;;
19364;SDS011;9818;48.382;10.850;2023-07-13T08:23:06;3.90;;;2.13;;
19364;SDS011;9818;48.382;10.850;2023-07-13T08:25:35;6.87;;;2.50;;
19364;SDS011;9818;48.382;10.850;2023-07-13T08:28:06;2.37;;;2.00;;
19364;SDS011;9818;48.382;10.850;2023-07-13T08:30:35;4.17;;;2.33;;
19364;SDS011;9818;48.382;10.850;2023-07-13T08:33:04;2.93;;;2.00;;
19364;SDS011;9818;48.382;10.850;2023-07-13T08:35:32;4.00;;;1.90;;
19364;SDS011;9818;48.382;10.850;2023-07-13T08:38:01;5.23;;;2.17;;
19364;SDS011;9818;48.382;10.850;2023-07-13T08:40:30;3.00;;;1.87;;
19364;SDS011;9818;48.382;10.850;2023-07-13T08:42:59;5.27;;;2.10;;
19364;SDS011;9818;48.382;10.850;2023-07-13T08:45:33;3.90;;;1.87;;
19364;SDS011;9818;48.382;10.850;2023-07-13T08:48:11;5.57;;;1.83;;
19364;SDS011;9818;48.382;10.850;2023-07-13T08:50:47;5.10;;;1.90;;
19364;SDS011;9818;48.382;10.850;2023-07-13T08:53:18;4.13;;;1.60;;
19364;SDS011;9818;48.382;10.850;2023-07-13T08:55:47;4.07;;;1.83;;
19364;SDS011;9818;48.382;10.850;2023-07-13T08:58:19;3.97;;;2.10;;
19364;SDS011;9818;48.382;10.850;2023-07-13T09:00:59;3.63;;;2.10;;
19364;SDS011;9818;48.382;10.850;2023-07-13T09:03:37;2.97;;;1.90;;
19364;SDS011;9818;48.382;10.850;2023-07-13T09:06:13;5.80;;;2.20;;
19364;SDS011;9818;48.382;10.850;2023-07-13T09:08:47;4.27;;;1.87;;
19364;SDS011;9818;48.382;10.850;2023-07-13T09:11:29;5.07;;;1.93;;
19364;SDS011;9818;48.382;10.850;2023-07-13T09:14:18;3.70;;;1.80;;
19364;SDS011;9818;48.382;10.850;2023-07-13T09:17:07;3.30;;;1.97;;
19364;SDS011;9818;48.382;10.850;2023-07-13T09:19:41;7.87;;;2.33;;
19364;SDS011;9818;48.382;10.850;2023-07-13T09:22:13;3.77;;;1.93;;
19364;SDS011;9818;48.382;10.850;2023-07-13T09:24:50;2.33;;;1.63;;
19364;SDS011;9818;48.382;10.850;2023-07-13T09:27:23;3.90;;;2.03;;
19364;SDS011;9818;48.382;10.850;2023-07-13T09:30:00;2.93;;;1.73;;
19364;SDS011;9818;48.382;10.850;2023-07-13T09:32:42;4.17;;;1.70;;
19364;SDS011;9818;48.382;10.850;2023-07-13T09:35:15;5.83;;;1.90;;
19364;SDS011;9818;48.382;10.850;2023-07-13T09:37:47;3.87;;;1.70;;
19364;SDS011;9818;48.382;10.850;2023-07-13T09:40:20;3.60;;;1.90;;
19364;SDS011;9818;48.382;10.850;2023-07-13T09:42:53;4.37;;;2.03;;
19364;SDS011;9818;48.382;10.850;2023-07-13T09:45:27;2.87;;;1.90;;
19364;SDS011;9818;48.382;10.850;2023-07-13T09:48:03;4.10;;;1.53;;
19364;SDS011;9818;48.382;10.850;2023-07-13T09:50:33;3.00;;;1.60;;
19364;SDS011;9818;48.382;10.850;2023-07-13T09:53:02;2.83;;;1.50;;
19364;SDS011;9818;48.382;10.850;2023-07-13T09:55:32;5.73;;;1.83;;
19364;SDS011;9818;48.382;10.850;2023-07-13T09:58:03;4.00;;;1.50;;
19364;SDS011;9818;48.382;10.850;2023-07-13T10:00:34;3.33;;;1.67;;
19364;SDS011;9818;48.382;10.850;2023-07-13T10:03:15;3.67;;;1.63;;
19364;SDS011;9818;48.382;10.850;2023-07-13T10:05:47;3.07;;;1.90;;
19364;SDS011;9818;48.382;10.850;2023-07-13T10:08:19;5.30;;;2.07;;
19364;SDS011;9818;48.382;10.850;2023-07-13T10:10:53;3.60;;;1.60;;
19364;SDS011;9818;48.382;10.850;2023-07-13T10:13:29;3.37;;;1.60;;
19364;SDS011;9818;48.382;10.850;2023-07-13T10:16:02;3.73;;;1.70;;
19364;SDS011;9818;48.382;10.850;2023-07-13T10:18:37;2.43;;;1.47;;
19364;SDS011;9818;48.382;10.850;2023-07-13T10:21:11;2.92;;;1.73;;
19364;SDS011;9818;48.382;10.850;2023-07-13T10:23:42;3.55;;;1.70;;
19364;SDS011;9818;48.382;10.850;2023-07-13T10:26:15;5.53;;;1.73;;
19364;SDS011;9818;48.382;10.850;2023-07-13T10:28:52;2.67;;;1.40;;
19364;SDS011;9818;48.382;10.850;2023-07-13T10:31:24;3.37;;;2.10;;
19364;SDS011;9818;48.382;10.850;2023-07-13T10:33:55;7.17;;;2.00;;
19364;SDS011;9818;48.382;10.850;2023-07-13T10:36:28;4.87;;;1.80;;
19364;SDS011;9818;48.382;10.850;2023-07-13T10:39:01;4.93;;;1.60;;
19364;SDS011;9818;48.382;10.850;2023-07-13T10:41:33;2.67;;;1.70;;
19364;SDS011;9818;48.382;10.850;2023-07-13T10:44:06;3.23;;;1.80;;
19364;SDS011;9818;48.382;10.850;2023-07-13T10:46:43;3.47;;;2.05;;
19364;SDS011;9818;48.382;10.850;2023-07-13T10:49:15;2.10;;;1.55;;
19364;SDS011;9818;48.382;10.850;2023-07-13T10:51:46;2.38;;;1.80;;
19364;SDS011;9818;48.382;10.850;2023-07-13T10:54:18;2.90;;;1.65;;
19364;SDS011;9818;48.382;10.850;2023-07-13T10:56:51;3.95;;;1.60;;
19364;SDS011;9818;48.382;10.850;2023-07-13T10:59:35;3.30;;;1.85;;
19364;SDS011;9818;48.382;10.850;2023-07-13T11:02:09;2.70;;;1.55;;
19364;SDS011;9818;48.382;10.850;2023-07-13T11:04:54;2.97;;;1.65;;
19364;SDS011;9818;48.382;10.850;2023-07-13T11:07:25;2.00;;;1.58;;
19364;SDS011;9818;48.382;10.850;2023-07-13T11:09:57;2.55;;;1.55;;
19364;SDS011;9818;48.382;10.850;2023-07-13T11:15:27;2.78;;;1.70;;
19364;SDS011;9818;48.382;10.850;2023-07-13T11:18:04;4.47;;;1.90;;
19364;SDS011;9818;48.382;10.850;2023-07-13T11:20:43;4.85;;;1.98;;
19364;SDS011;9818;48.382;10.850;2023-07-13T11:25:59;2.97;;;1.50;;
19364;SDS011;9818;48.382;10.850;2023-07-13T11:28:30;3.83;;;1.70;;
19364;SDS011;9818;48.382;10.850;2023-07-13T11:31:11;2.78;;;1.95;;
19364;SDS011;9818;48.382;10.850;2023-07-13T11:33:55;4.13;;;1.80;;
19364;SDS011;9818;48.382;10.850;2023-07-13T11:36:31;4.57;;;2.10;;
19364;SDS011;9818;48.382;10.850;2023-07-13T11:39:11;2.50;;;1.77;;
19364;SDS011;9818;48.382;10.850;2023-07-13T11:41:48;2.35;;;1.60;;
19364;SDS011;9818;48.382;10.850;2023-07-13T11:44:21;5.43;;;1.55;;
19364;SDS011;9818;48.382;10.850;2023-07-13T11:46:52;3.22;;;1.88;;
19364;SDS011;9818;48.382;10.850;2023-07-13T11:49:22;4.03;;;2.17;;
19364;SDS011;9818;48.382;10.850;2023-07-13T11:51:55;2.22;;;1.75;;
19364;SDS011;9818;48.382;10.850;2023-07-13T11:54:26;6.47;;;2.05;;
19364;SDS011;9818;48.382;10.850;2023-07-13T11:56:57;5.38;;;2.03;;
19364;SDS011;9818;48.382;10.850;2023-07-13T11:59:31;4.97;;;2.22;;
19364;SDS011;9818;48.382;10.850;2023-07-13T12:02:01;4.45;;;1.70;;
19364;SDS011;9818;48.382;10.850;2023-07-13T12:04:31;4.70;;;1.90;;
19364;SDS011;9818;48.382;10.850;2023-07-13T12:07:06;3.30;;;2.00;;
19364;SDS011;9818;48.382;10.850;2023-07-13T12:09:43;3.97;;;2.00;;
19364;SDS011;9818;48.382;10.850;2023-07-13T12:12:12;5.45;;;2.30;;
19364;SDS011;9818;48.382;10.850;2023-07-13T12:14:41;2.88;;;1.80;;
19364;SDS011;9818;48.382;10.850;2023-07-13T12:17:16;3.30;;;1.92;;
19364;SDS011;9818;48.382;10.850;2023-07-13T12:19:47;5.50;;;2.13;;
19364;SDS011;9818;48.382;10.850;2023-07-13T12:22:19;3.35;;;2.13;;
19364;SDS011;9818;48.382;10.850;2023-07-13T12:24:48;4.33;;;2.17;;
19364;SDS011;9818;48.382;10.850;2023-07-13T12:27:20;4.97;;;2.00;;
19364;SDS011;9818;48.382;10.850;2023-07-13T12:29:51;3.60;;;1.73;;
19364;SDS011;9818;48.382;10.850;2023-07-13T12:32:25;5.63;;;1.95;;
19364;SDS011;9818;48.382;10.850;2023-07-13T12:34:56;3.92;;;1.83;;
19364;SDS011;9818;48.382;10.850;2023-07-13T12:37:43;3.35;;;1.80;;
19364;SDS011;9818;48.382;10.850;2023-07-13T12:40:14;3.15;;;1.63;;
19364;SDS011;9818;48.382;10.850;2023-07-13T12:42:45;5.35;;;1.73;;
19364;SDS011;9818;48.382;10.850;2023-07-13T12:45:17;2.22;;;1.67;;
19364;SDS011;9818;48.382;10.850;2023-07-13T12:47:48;3.22;;;1.67;;
19364;SDS011;9818;48.382;10.850;2023-07-13T12:50:19;3.95;;;1.52;;
19364;SDS011;9818;48.382;10.850;2023-07-13T12:52:54;2.42;;;1.75;;
19364;SDS011;9818;48.382;10.850;2023-07-13T12:55:24;2.40;;;1.60;;
19364;SDS011;9818;48.382;10.850;2023-07-13T12:57:57;3.88;;;1.75;;
19364;SDS011;9818;48.382;10.850;2023-07-13T13:00:29;3.55;;;1.83;;
19364;SDS011;9818;48.382;10.850;2023-07-13T13:03:02;4.53;;;1.98;;
19364;SDS011;9818;48.382;10.850;2023-07-13T13:05:34;4.65;;;1.70;;
19364;SDS011;9818;48.382;10.850;2023-07-13T13:08:07;4.70;;;1.80;;
19364;SDS011;9818;48.382;10.850;2023-07-13T13:10:38;3.55;;;1.50;;
19364;SDS011;9818;48.382;10.850;2023-07-13T13:13:07;3.63;;;1.80;;
19364;SDS011;9818;48.382;10.850;2023-07-13T13:15:37;6.55;;;1.92;;
19364;SDS011;9818;48.382;10.850;2023-07-13T13:18:09;5.20;;;1.90;;
19364;SDS011;9818;48.382;10.850;2023-07-13T13:20:44;2.90;;;1.67;;
19364;SDS011;9818;48.382;10.850;2023-07-13T13:23:16;2.45;;;1.70;;
19364;SDS011;9818;48.382;10.850;2023-07-13T13:25:48;4.82;;;1.92;;
19364;SDS011;9818;48.382;10.850;2023-07-13T13:28:18;3.42;;;1.98;;
19364;SDS011;9818;48.382;10.850;2023-07-13T13:30:49;5.43;;;1.92;;
19364;SDS011;9818;48.382;10.850;2023-07-13T13:33:19;4.57;;;2.10;;
19364;SDS011;9818;48.382;10.850;2023-07-13T13:35:49;3.60;;;1.67;;
19364;SDS011;9818;48.382;10.850;2023-07-13T13:38:22;3.25;;;1.63;;
19364;SDS011;9818;48.382;10.850;2023-07-13T13:40:53;2.45;;;1.80;;
19364;SDS011;9818;48.382;10.850;2023-07-13T13:43:22;4.47;;;1.67;;
19364;SDS011;9818;48.382;10.850;2023-07-13T13:45:54;3.45;;;2.10;;
19364;SDS011;9818;48.382;10.850;2023-07-13T13:48:26;3.75;;;2.10;;
19364;SDS011;9818;48.382;10.850;2023-07-13T13:51:00;5.60;;;2.30;;
19364;SDS011;9818;48.382;10.850;2023-07-13T13:53:34;3.90;;;2.08;;
19364;SDS011;9818;48.382;10.850;2023-07-13T13:56:03;6.50;;;2.03;;
19364;SDS011;9818;48.382;10.850;2023-07-13T13:58:33;3.17;;;1.80;;
19364;SDS011;9818;48.382;10.850;2023-07-13T14:01:01;3.13;;;1.80;;
19364;SDS011;9818;48.382;10.850;2023-07-13T14:03:33;2.10;;;1.60;;
19364;SDS011;9818;48.382;10.850;2023-07-13T14:06:02;3.72;;;1.60;;
19364;SDS011;9818;48.382;10.850;2023-07-13T14:08:31;4.60;;;1.98;;
19364;SDS011;9818;48.382;10.850;2023-07-13T14:11:03;2.85;;;2.15;;
19364;SDS011;9818;48.382;10.850;2023-07-13T14:13:32;3.83;;;1.50;;
19364;SDS011;9818;48.382;10.850;2023-07-13T14:16:09;5.32;;;1.77;;
19364;SDS011;9818;48.382;10.850;2023-07-13T14:18:39;4.32;;;1.60;;
19364;SDS011;9818;48.382;10.850;2023-07-13T14:21:11;4.10;;;2.03;;
19364;SDS011;9818;48.382;10.850;2023-07-13T14:23:44;3.45;;;1.75;;
19364;SDS011;9818;48.382;10.850;2023-07-13T14:26:16;3.95;;;1.90;;
19364;SDS011;9818;48.382;10.850;2023-07-13T14:28:47;4.93;;;2.00;;
19364;SDS011;9818;48.382;10.850;2023-07-13T14:31:18;4.60;;;1.88;;
19364;SDS011;9818;48.382;10.850;2023-07-13T14:33:47;2.58;;;1.60;;
19364;SDS011;9818;48.382;10.850;2023-07-13T14:36:21;3.85;;;2.00;;
19364;SDS011;9818;48.382;10.850;2023-07-13T14:38:55;5.60;;;3.03;;
19364;SDS011;9818;48.382;10.850;2023-07-13T14:41:27;4.13;;;2.20;;
19364;SDS011;9818;48.382;10.850;2023-07-13T14:43:55;3.35;;;1.85;;
19364;SDS011;9818;48.382;10.850;2023-07-13T14:46:27;4.65;;;1.75;;
19364;SDS011;9818;48.382;10.850;2023-07-13T14:48:59;4.10;;;1.67;;
19364;SDS011;9818;48.382;10.850;2023-07-13T14:51:31;4.22;;;1.70;;
19364;SDS011;9818;48.382;10.850;2023-07-13T14:54:02;5.80;;;1.90;;
19364;SDS011;9818;48.382;10.850;2023-07-13T14:56:36;2.50;;;1.77;;
19364;SDS011;9818;48.382;10.850;2023-07-13T14:59:05;3.17;;;1.70;;
19364;SDS011;9818;48.382;10.850;2023-07-13T15:01:34;2.10;;;1.50;;
19364;SDS011;9818;48.382;10.850;2023-07-13T15:04:04;3.95;;;1.50;;
19364;SDS011;9818;48.382;10.850;2023-07-13T15:09:18;1.63;;;1.30;;
19364;SDS011;9818;48.382;10.850;2023-07-13T15:11:49;3.65;;;1.73;;
19364;SDS011;9818;48.382;10.850;2023-07-13T15:14:18;5.32;;;1.50;;